sensor_id;sensor_type;location;lat;lon;timestamp;pressure;altitude;pressure_sealevel;temperature
74043;BMP280;62384;53.600;10.040;2022-07-29T00:00:59;101590.66;;;14.52
74043;BMP280;62384;53.600;10.040;2022-07-29T00:03:24;101622.97;;;14.68
74043;BMP280;62384;53.600;10.040;2022-07-29T00:05:50;101613.72;;;14.69
74043;BMP280;62384;53.600;10.040;2022-07-29T00:08:17;101516.88;;;13.87
74043;BMP280;62384;53.600;10.040;2022-07-29T00:10:42;101585.38;;;14.40
74043;BMP280;62384;53.600;10.040;2022-07-29T00:13:07;101603.72;;;14.50
74043;BMP280;62384;53.600;10.040;2022-07-29T00:15:33;101606.03;;;14.48
74043;BMP280;62384;53.600;10.040;2022-07-29T00:17:58;101600.81;;;14.39
74043;BMP280;62384;53.600;10.040;2022-07-29T00:20:24;101600.09;;;14.42
74043;BMP280;62384;53.600;10.040;2022-07-29T00:22:49;101576.72;;;14.31
74043;BMP280;62384;53.600;10.040;2022-07-29T00:25:14;101571.75;;;14.33
74043;BMP280;62384;53.600;10.040;2022-07-29T00:27:42;101601.50;;;14.36
74043;BMP280;62384;53.600;10.040;2022-07-29T00:30:08;101557.47;;;14.13
74043;BMP280;62384;53.600;10.040;2022-07-29T00:32:33;101552.53;;;14.15
74043;BMP280;62384;53.600;10.040;2022-07-29T00:34:59;101581.91;;;14.39
74043;BMP280;62384;53.600;10.040;2022-07-29T00:37:43;101567.97;;;14.37
74043;BMP280;62384;53.600;10.040;2022-07-29T00:40:09;101582.34;;;14.41
74043;BMP280;62384;53.600;10.040;2022-07-29T00:42:49;101574.16;;;14.38
74043;BMP280;62384;53.600;10.040;2022-07-29T00:45:16;101521.53;;;14.09
74043;BMP280;62384;53.600;10.040;2022-07-29T00:47:42;101567.84;;;14.30
74043;BMP280;62384;53.600;10.040;2022-07-29T00:50:09;101506.56;;;13.93
74043;BMP280;62384;53.600;10.040;2022-07-29T00:52:36;101564.13;;;14.16
74043;BMP280;62384;53.600;10.040;2022-07-29T00:55:04;101546.44;;;13.99
74043;BMP280;62384;53.600;10.040;2022-07-29T00:57:30;101576.53;;;14.20
74043;BMP280;62384;53.600;10.040;2022-07-29T00:59:56;101574.59;;;14.21
74043;BMP280;62384;53.600;10.040;2022-07-29T01:02:21;101542.78;;;14.11
74043;BMP280;62384;53.600;10.040;2022-07-29T01:04:47;101563.50;;;14.07
74043;BMP280;62384;53.600;10.040;2022-07-29T01:07:13;101530.44;;;13.91
74043;BMP280;62384;53.600;10.040;2022-07-29T01:09:38;101510.59;;;13.64
74043;BMP280;62384;53.600;10.040;2022-07-29T01:12:04;101562.00;;;14.06
74043;BMP280;62384;53.600;10.040;2022-07-29T01:14:30;101521.78;;;13.82
74043;BMP280;62384;53.600;10.040;2022-07-29T01:17:02;101536.13;;;13.86
74043;BMP280;62384;53.600;10.040;2022-07-29T01:27:44;101545.78;;;14.06
74043;BMP280;62384;53.600;10.040;2022-07-29T01:30:10;101550.88;;;14.11
74043;BMP280;62384;53.600;10.040;2022-07-29T01:32:38;101527.72;;;13.91
74043;BMP280;62384;53.600;10.040;2022-07-29T01:35:21;101523.59;;;13.97
74043;BMP280;62384;53.600;10.040;2022-07-29T01:37:48;101541.22;;;14.10
74043;BMP280;62384;53.600;10.040;2022-07-29T01:40:34;101557.72;;;14.05
74043;BMP280;62384;53.600;10.040;2022-07-29T01:43:07;101538.66;;;13.98
74043;BMP280;62384;53.600;10.040;2022-07-29T01:45:59;101496.84;;;13.69
74043;BMP280;62384;53.600;10.040;2022-07-29T01:48:45;101496.84;;;13.69
74043;BMP280;62384;53.600;10.040;2022-07-29T01:51:21;101563.88;;;14.24
74043;BMP280;62384;53.600;10.040;2022-07-29T01:54:08;101536.16;;;14.08
74043;BMP280;62384;53.600;10.040;2022-07-29T01:56:36;101552.28;;;14.24
74043;BMP280;62384;53.600;10.040;2022-07-29T01:59:05;101548.72;;;14.20
74043;BMP280;62384;53.600;10.040;2022-07-29T02:01:32;101548.03;;;14.23
74043;BMP280;62384;53.600;10.040;2022-07-29T02:03:59;101553.78;;;14.21
74043;BMP280;62384;53.600;10.040;2022-07-29T02:06:27;101529.81;;;14.20
74043;BMP280;62384;53.600;10.040;2022-07-29T02:08:55;101501.28;;;14.00
74043;BMP280;62384;53.600;10.040;2022-07-29T02:11:23;101474.94;;;13.93
74043;BMP280;62384;53.600;10.040;2022-07-29T02:13:50;101474.84;;;13.90
74043;BMP280;62384;53.600;10.040;2022-07-29T02:16:20;101510.28;;;14.07
74043;BMP280;62384;53.600;10.040;2022-07-29T02:18:47;101470.31;;;13.94
74043;BMP280;62384;53.600;10.040;2022-07-29T02:21:15;101523.47;;;14.31
74043;BMP280;62384;53.600;10.040;2022-07-29T02:23:44;101499.16;;;14.09
74043;BMP280;62384;53.600;10.040;2022-07-29T02:26:11;101520.34;;;14.29
74043;BMP280;62384;53.600;10.040;2022-07-29T02:28:36;101514.00;;;14.18
74043;BMP280;62384;53.600;10.040;2022-07-29T02:31:02;101517.59;;;14.26
74043;BMP280;62384;53.600;10.040;2022-07-29T02:33:29;101480.09;;;14.02
74043;BMP280;62384;53.600;10.040;2022-07-29T02:35:56;101480.53;;;14.04
74043;BMP280;62384;53.600;10.040;2022-07-29T02:38:24;101507.44;;;14.19
74043;BMP280;62384;53.600;10.040;2022-07-29T02:41:12;101495.50;;;14.20
74043;BMP280;62384;53.600;10.040;2022-07-29T02:43:39;101512.56;;;14.24
74043;BMP280;62384;53.600;10.040;2022-07-29T02:46:08;101498.06;;;14.13
74043;BMP280;62384;53.600;10.040;2022-07-29T02:48:38;101503.25;;;14.22
74043;BMP280;62384;53.600;10.040;2022-07-29T02:51:17;101485.34;;;14.14
74043;BMP280;62384;53.600;10.040;2022-07-29T02:54:08;101485.28;;;14.10
74043;BMP280;62384;53.600;10.040;2022-07-29T02:56:36;101488.50;;;14.16
74043;BMP280;62384;53.600;10.040;2022-07-29T02:59:07;101463.84;;;13.98
74043;BMP280;62384;53.600;10.040;2022-07-29T03:01:34;101478.81;;;14.15
74043;BMP280;62384;53.600;10.040;2022-07-29T03:04:03;101494.97;;;14.11
74043;BMP280;62384;53.600;10.040;2022-07-29T03:06:30;101490.41;;;14.15
74043;BMP280;62384;53.600;10.040;2022-07-29T03:08:57;101453.09;;;14.02
74043;BMP280;62384;53.600;10.040;2022-07-29T03:11:23;101466.44;;;14.14
74043;BMP280;62384;53.600;10.040;2022-07-29T03:13:49;101447.94;;;14.12
74043;BMP280;62384;53.600;10.040;2022-07-29T03:16:15;101458.00;;;14.15
74043;BMP280;62384;53.600;10.040;2022-07-29T03:18:40;101474.25;;;14.19
74043;BMP280;62384;53.600;10.040;2022-07-29T03:21:06;101478.88;;;14.18
74043;BMP280;62384;53.600;10.040;2022-07-29T03:23:31;101469.63;;;14.19
74043;BMP280;62384;53.600;10.040;2022-07-29T03:25:57;101474.66;;;14.21
74043;BMP280;62384;53.600;10.040;2022-07-29T03:28:23;101474.97;;;14.16
74043;BMP280;62384;53.600;10.040;2022-07-29T03:30:49;101431.38;;;13.95
74043;BMP280;62384;53.600;10.040;2022-07-29T03:33:15;101462.94;;;14.13
74043;BMP280;62384;53.600;10.040;2022-07-29T03:35:43;101467.81;;;14.27
74043;BMP280;62384;53.600;10.040;2022-07-29T03:38:08;101474.75;;;14.24
74043;BMP280;62384;53.600;10.040;2022-07-29T03:40:38;101446.75;;;14.13
74043;BMP280;62384;53.600;10.040;2022-07-29T03:43:06;101461.25;;;14.24
74043;BMP280;62384;53.600;10.040;2022-07-29T03:45:33;101457.75;;;14.24
74043;BMP280;62384;53.600;10.040;2022-07-29T03:48:03;101470.53;;;14.27
74043;BMP280;62384;53.600;10.040;2022-07-29T03:50:30;101457.84;;;14.31
74043;BMP280;62384;53.600;10.040;2022-07-29T03:52:57;101470.59;;;14.30
74043;BMP280;62384;53.600;10.040;2022-07-29T03:55:22;101411.63;;;13.91
74043;BMP280;62384;53.600;10.040;2022-07-29T03:57:49;101451.56;;;14.23
74043;BMP280;62384;53.600;10.040;2022-07-29T04:00:15;101445.44;;;14.26
74043;BMP280;62384;53.600;10.040;2022-07-29T04:02:43;101468.75;;;14.34
74043;BMP280;62384;53.600;10.040;2022-07-29T04:05:14;101471.06;;;14.36
74043;BMP280;62384;53.600;10.040;2022-07-29T04:07:46;101459.56;;;14.39
74043;BMP280;62384;53.600;10.040;2022-07-29T04:10:12;101482.38;;;14.41
74043;BMP280;62384;53.600;10.040;2022-07-29T04:12:38;101480.47;;;14.42
74043;BMP280;62384;53.600;10.040;2022-07-29T04:15:04;101490.94;;;14.47
74043;BMP280;62384;53.600;10.040;2022-07-29T04:17:30;101417.09;;;14.17
74043;BMP280;62384;53.600;10.040;2022-07-29T04:19:55;101482.84;;;14.47
74043;BMP280;62384;53.600;10.040;2022-07-29T04:22:20;101422.31;;;14.06
74043;BMP280;62384;53.600;10.040;2022-07-29T04:24:46;101497.97;;;14.52
74043;BMP280;62384;53.600;10.040;2022-07-29T04:27:11;101474.53;;;14.36
74043;BMP280;62384;53.600;10.040;2022-07-29T04:29:36;101468.53;;;14.46
74043;BMP280;62384;53.600;10.040;2022-07-29T04:32:02;101473.22;;;14.49
74043;BMP280;62384;53.600;10.040;2022-07-29T04:34:27;101426.00;;;14.17
74043;BMP280;62384;53.600;10.040;2022-07-29T04:36:52;101485.63;;;14.54
74043;BMP280;62384;53.600;10.040;2022-07-29T04:39:18;101461.53;;;14.42
74043;BMP280;62384;53.600;10.040;2022-07-29T04:41:44;101466.38;;;14.56
74043;BMP280;62384;53.600;10.040;2022-07-29T04:44:09;101444.06;;;14.36
74043;BMP280;62384;53.600;10.040;2022-07-29T04:46:35;101472.31;;;14.65
74043;BMP280;62384;53.600;10.040;2022-07-29T04:49:00;101446.13;;;14.46
74043;BMP280;62384;53.600;10.040;2022-07-29T04:51:26;101480.47;;;14.68
74043;BMP280;62384;53.600;10.040;2022-07-29T04:53:52;101478.50;;;14.65
74043;BMP280;62384;53.600;10.040;2022-07-29T04:56:18;101463.09;;;14.69
74043;BMP280;62384;53.600;10.040;2022-07-29T04:58:43;101435.97;;;14.62
74043;BMP280;62384;53.600;10.040;2022-07-29T05:01:08;101476.09;;;14.86
74043;BMP280;62384;53.600;10.040;2022-07-29T05:03:33;101473.34;;;14.83
74043;BMP280;62384;53.600;10.040;2022-07-29T05:05:59;101469.56;;;14.87
74043;BMP280;62384;53.600;10.040;2022-07-29T05:08:26;101492.16;;;14.98
74043;BMP280;62384;53.600;10.040;2022-07-29T05:10:52;101499.09;;;14.99
74043;BMP280;62384;53.600;10.040;2022-07-29T05:13:17;101465.97;;;14.80
74043;BMP280;62384;53.600;10.040;2022-07-29T05:15:42;101486.75;;;14.98
74043;BMP280;62384;53.600;10.040;2022-07-29T05:18:08;101451.28;;;14.77
74043;BMP280;62384;53.600;10.040;2022-07-29T05:20:33;101512.88;;;15.17
74043;BMP280;62384;53.600;10.040;2022-07-29T05:23:00;101502.41;;;15.15
74043;BMP280;62384;53.600;10.040;2022-07-29T05:25:27;101510.72;;;15.29
74043;BMP280;62384;53.600;10.040;2022-07-29T05:27:52;101512.25;;;15.27
74043;BMP280;62384;53.600;10.040;2022-07-29T05:30:18;101524.44;;;15.44
74043;BMP280;62384;53.600;10.040;2022-07-29T05:32:43;101522.88;;;15.43
74043;BMP280;62384;53.600;10.040;2022-07-29T05:35:13;101516.31;;;15.44
74043;BMP280;62384;53.600;10.040;2022-07-29T05:37:39;101480.69;;;15.38
74043;BMP280;62384;53.600;10.040;2022-07-29T05:40:06;101512.22;;;15.57
74043;BMP280;62384;53.600;10.040;2022-07-29T05:42:32;101523.63;;;15.73
74043;BMP280;62384;53.600;10.040;2022-07-29T05:44:57;101539.16;;;15.79
74043;BMP280;62384;53.600;10.040;2022-07-29T05:47:23;101549.75;;;15.91
74043;BMP280;62384;53.600;10.040;2022-07-29T05:49:54;101565.03;;;16.06
74043;BMP280;62384;53.600;10.040;2022-07-29T05:52:20;101554.19;;;16.06
74043;BMP280;62384;53.600;10.040;2022-07-29T05:54:45;101528.91;;;15.95
74043;BMP280;62384;53.600;10.040;2022-07-29T05:57:19;101560.34;;;16.03
74043;BMP280;62384;53.600;10.040;2022-07-29T05:59:45;101547.16;;;16.02
74043;BMP280;62384;53.600;10.040;2022-07-29T06:02:11;101492.91;;;15.62
74043;BMP280;62384;53.600;10.040;2022-07-29T06:04:37;101546.41;;;16.05
74043;BMP280;62384;53.600;10.040;2022-07-29T06:07:03;101561.75;;;16.27
74043;BMP280;62384;53.600;10.040;2022-07-29T06:09:28;101568.16;;;16.49
74043;BMP280;62384;53.600;10.040;2022-07-29T06:11:54;101526.59;;;16.38
74043;BMP280;62384;53.600;10.040;2022-07-29T06:14:20;101534.09;;;16.51
74043;BMP280;62384;53.600;10.040;2022-07-29T06:16:45;101553.59;;;16.71
74043;BMP280;62384;53.600;10.040;2022-07-29T06:19:10;101578.53;;;16.87
74043;BMP280;62384;53.600;10.040;2022-07-29T06:21:36;101550.91;;;16.74
74043;BMP280;62384;53.600;10.040;2022-07-29T06:24:04;101518.66;;;16.59
74043;BMP280;62384;53.600;10.040;2022-07-29T06:26:29;101522.94;;;16.63
74043;BMP280;62384;53.600;10.040;2022-07-29T06:28:54;101548.72;;;16.94
74043;BMP280;62384;53.600;10.040;2022-07-29T06:31:20;101565.16;;;17.19
74043;BMP280;62384;53.600;10.040;2022-07-29T06:33:45;101585.78;;;17.34
74043;BMP280;62384;53.600;10.040;2022-07-29T06:36:10;101575.72;;;17.34
74043;BMP280;62384;53.600;10.040;2022-07-29T06:38:36;101582.34;;;17.47
74043;BMP280;62384;53.600;10.040;2022-07-29T06:41:03;101562.53;;;17.33
74043;BMP280;62384;53.600;10.040;2022-07-29T06:43:35;101566.00;;;17.37
74043;BMP280;62384;53.600;10.040;2022-07-29T06:46:04;101594.06;;;17.62
74043;BMP280;62384;53.600;10.040;2022-07-29T06:48:30;101535.00;;;17.38
74043;BMP280;62384;53.600;10.040;2022-07-29T06:50:56;101598.47;;;17.98
74043;BMP280;62384;53.600;10.040;2022-07-29T06:53:21;101586.78;;;17.87
74043;BMP280;62384;53.600;10.040;2022-07-29T06:55:47;101605.06;;;18.01
74043;BMP280;62384;53.600;10.040;2022-07-29T06:58:12;101614.03;;;18.12
74043;BMP280;62384;53.600;10.040;2022-07-29T07:00:41;101605.84;;;18.01
74043;BMP280;62384;53.600;10.040;2022-07-29T07:03:06;101614.44;;;18.17
74043;BMP280;62384;53.600;10.040;2022-07-29T07:05:31;101602.78;;;18.13
74043;BMP280;62384;53.600;10.040;2022-07-29T07:07:57;101580.59;;;18.01
74043;BMP280;62384;53.600;10.040;2022-07-29T07:10:22;101603.53;;;18.14
74043;BMP280;62384;53.600;10.040;2022-07-29T07:12:48;101566.25;;;18.00
74043;BMP280;62384;53.600;10.040;2022-07-29T07:15:13;101556.06;;;17.76
74043;BMP280;62384;53.600;10.040;2022-07-29T07:17:38;101616.00;;;18.25
74043;BMP280;62384;53.600;10.040;2022-07-29T07:20:05;101617.56;;;18.37
74043;BMP280;62384;53.600;10.040;2022-07-29T07:22:31;101624.59;;;18.48
74043;BMP280;62384;53.600;10.040;2022-07-29T07:24:57;101613.31;;;18.50
74043;BMP280;62384;53.600;10.040;2022-07-29T07:27:22;101619.53;;;18.57
74043;BMP280;62384;53.600;10.040;2022-07-29T07:29:48;101626.13;;;18.67
74043;BMP280;62384;53.600;10.040;2022-07-29T07:32:13;101623.03;;;18.61
74043;BMP280;62384;53.600;10.040;2022-07-29T07:34:41;101608.25;;;18.52
74043;BMP280;62384;53.600;10.040;2022-07-29T07:37:06;101591.94;;;18.48
74043;BMP280;62384;53.600;10.040;2022-07-29T07:39:32;101631.59;;;18.85
74043;BMP280;62384;53.600;10.040;2022-07-29T07:41:57;101631.53;;;18.92
74043;BMP280;62384;53.600;10.040;2022-07-29T07:44:23;101642.06;;;18.97
74043;BMP280;62384;53.600;10.040;2022-07-29T07:46:48;101596.22;;;18.81
74043;BMP280;62384;53.600;10.040;2022-07-29T07:49:13;101631.53;;;19.02
74043;BMP280;62384;53.600;10.040;2022-07-29T07:51:39;101621.44;;;19.06
74043;BMP280;62384;53.600;10.040;2022-07-29T07:54:04;101631.06;;;19.42
74043;BMP280;62384;53.600;10.040;2022-07-29T07:56:29;101624.81;;;19.45
74043;BMP280;62384;53.600;10.040;2022-07-29T07:58:55;101658.31;;;19.42
74043;BMP280;62384;53.600;10.040;2022-07-29T08:01:20;101595.00;;;19.03
74043;BMP280;62384;53.600;10.040;2022-07-29T08:03:49;101663.38;;;19.47
74043;BMP280;62384;53.600;10.040;2022-07-29T08:06:14;101581.03;;;18.91
74043;BMP280;62384;53.600;10.040;2022-07-29T08:08:40;101650.09;;;19.49
74043;BMP280;62384;53.600;10.040;2022-07-29T08:11:05;101636.06;;;19.51
74043;BMP280;62384;53.600;10.040;2022-07-29T08:13:31;101650.09;;;19.60
74043;BMP280;62384;53.600;10.040;2022-07-29T08:15:59;101640.66;;;19.78
74043;BMP280;62384;53.600;10.040;2022-07-29T08:18:27;101665.50;;;19.84
74043;BMP280;62384;53.600;10.040;2022-07-29T08:20:53;101624.28;;;19.75
74043;BMP280;62384;53.600;10.040;2022-07-29T08:23:18;101667.31;;;20.15
74043;BMP280;62384;53.600;10.040;2022-07-29T08:25:44;101690.53;;;20.41
74043;BMP280;62384;53.600;10.040;2022-07-29T08:28:09;101692.06;;;20.45
74043;BMP280;62384;53.600;10.040;2022-07-29T08:30:35;101695.13;;;20.51
74043;BMP280;62384;53.600;10.040;2022-07-29T08:33:00;101680.25;;;20.59
74043;BMP280;62384;53.600;10.040;2022-07-29T08:35:26;101702.56;;;20.95
74043;BMP280;62384;53.600;10.040;2022-07-29T08:37:52;101710.19;;;21.14
74043;BMP280;62384;53.600;10.040;2022-07-29T08:40:19;101705.72;;;21.30
74043;BMP280;62384;53.600;10.040;2022-07-29T08:42:45;101715.78;;;21.37
74043;BMP280;62384;53.600;10.040;2022-07-29T08:45:11;101723.53;;;21.45
74043;BMP280;62384;53.600;10.040;2022-07-29T08:47:38;101703.91;;;21.54
74043;BMP280;62384;53.600;10.040;2022-07-29T08:50:06;101733.78;;;21.68
74043;BMP280;62384;53.600;10.040;2022-07-29T08:52:35;101716.38;;;21.85
74043;BMP280;62384;53.600;10.040;2022-07-29T08:55:02;101738.59;;;22.21
74043;BMP280;62384;53.600;10.040;2022-07-29T08:57:28;101743.66;;;22.45
74043;BMP280;62384;53.600;10.040;2022-07-29T08:59:54;101731.59;;;22.43
74043;BMP280;62384;53.600;10.040;2022-07-29T09:02:24;101733.56;;;22.42
74043;BMP280;62384;53.600;10.040;2022-07-29T09:04:52;101754.44;;;22.59
74043;BMP280;62384;53.600;10.040;2022-07-29T09:07:18;101729.50;;;22.77
74043;BMP280;62384;53.600;10.040;2022-07-29T09:09:44;101757.31;;;22.72
74043;BMP280;62384;53.600;10.040;2022-07-29T09:12:10;101766.72;;;22.94
74043;BMP280;62384;53.600;10.040;2022-07-29T09:14:39;101784.06;;;23.11
74043;BMP280;62384;53.600;10.040;2022-07-29T09:17:07;101793.22;;;23.24
74043;BMP280;62384;53.600;10.040;2022-07-29T09:19:34;101764.50;;;23.71
74043;BMP280;62384;53.600;10.040;2022-07-29T09:22:03;101776.88;;;24.14
74043;BMP280;62384;53.600;10.040;2022-07-29T09:24:43;101797.75;;;24.44
74043;BMP280;62384;53.600;10.040;2022-07-29T09:29:46;101828.75;;;24.45
74043;BMP280;62384;53.600;10.040;2022-07-29T09:32:12;101802.28;;;24.51
74043;BMP280;62384;53.600;10.040;2022-07-29T09:34:37;101823.31;;;24.41
74043;BMP280;62384;53.600;10.040;2022-07-29T09:37:03;101802.75;;;23.97
74043;BMP280;62384;53.600;10.040;2022-07-29T09:39:38;101794.94;;;23.76
74043;BMP280;62384;53.600;10.040;2022-07-29T09:42:11;101789.44;;;23.57
74043;BMP280;62384;53.600;10.040;2022-07-29T09:44:44;101810.41;;;23.67
74043;BMP280;62384;53.600;10.040;2022-07-29T09:47:10;101794.75;;;23.48
74043;BMP280;62384;53.600;10.040;2022-07-29T09:49:50;101790.84;;;23.45
74043;BMP280;62384;53.600;10.040;2022-07-29T09:52:16;101797.59;;;23.41
74043;BMP280;62384;53.600;10.040;2022-07-29T09:54:41;101800.97;;;23.48
74043;BMP280;62384;53.600;10.040;2022-07-29T09:57:09;101829.13;;;23.52
74043;BMP280;62384;53.600;10.040;2022-07-29T09:59:56;101807.03;;;23.59
74043;BMP280;62384;53.600;10.040;2022-07-29T10:02:22;101822.59;;;23.85
74043;BMP280;62384;53.600;10.040;2022-07-29T10:04:49;101811.84;;;24.10
74043;BMP280;62384;53.600;10.040;2022-07-29T10:07:14;101811.47;;;24.12
74043;BMP280;62384;53.600;10.040;2022-07-29T10:09:50;101801.75;;;23.88
74043;BMP280;62384;53.600;10.040;2022-07-29T10:12:17;101788.09;;;23.84
74043;BMP280;62384;53.600;10.040;2022-07-29T10:14:42;101828.03;;;24.25
74043;BMP280;62384;53.600;10.040;2022-07-29T10:17:09;101814.16;;;24.64
74043;BMP280;62384;53.600;10.040;2022-07-29T10:19:37;101825.13;;;24.48
74043;BMP280;62384;53.600;10.040;2022-07-29T10:22:06;101732.56;;;23.96
74043;BMP280;62384;53.600;10.040;2022-07-29T10:24:33;101802.44;;;24.28
74043;BMP280;62384;53.600;10.040;2022-07-29T10:27:00;101820.50;;;24.29
74043;BMP280;62384;53.600;10.040;2022-07-29T10:29:29;101818.94;;;24.28
74043;BMP280;62384;53.600;10.040;2022-07-29T10:35:17;101815.47;;;24.24
74043;BMP280;62384;53.600;10.040;2022-07-29T10:41:16;101818.41;;;23.97
74043;BMP280;62384;53.600;10.040;2022-07-29T10:43:42;101820.47;;;23.93
74043;BMP280;62384;53.600;10.040;2022-07-29T10:46:11;101796.97;;;23.92
74043;BMP280;62384;53.600;10.040;2022-07-29T10:49:12;101796.97;;;23.92
74043;BMP280;62384;53.600;10.040;2022-07-29T10:52:06;101810.53;;;23.99
74043;BMP280;62384;53.600;10.040;2022-07-29T10:57:26;101786.50;;;23.87
74043;BMP280;62384;53.600;10.040;2022-07-29T11:05:04;101806.94;;;24.02
74043;BMP280;62384;53.600;10.040;2022-07-29T11:07:32;101741.84;;;23.67
74043;BMP280;62384;53.600;10.040;2022-07-29T11:15:19;101781.09;;;25.12
74043;BMP280;62384;53.600;10.040;2022-07-29T11:20:40;101812.28;;;25.63
74043;BMP280;62384;53.600;10.040;2022-07-29T11:23:31;101805.03;;;25.69
74043;BMP280;62384;53.600;10.040;2022-07-29T11:31:49;101815.03;;;28.23
74043;BMP280;62384;53.600;10.040;2022-07-29T11:34:28;101788.66;;;28.49
74043;BMP280;62384;53.600;10.040;2022-07-29T11:39:34;101804.63;;;28.99
74043;BMP280;62384;53.600;10.040;2022-07-29T11:44:57;101791.72;;;28.78
74043;BMP280;62384;53.600;10.040;2022-07-29T11:47:23;101771.00;;;28.56
74043;BMP280;62384;53.600;10.040;2022-07-29T11:49:50;101762.94;;;28.12
74043;BMP280;62384;53.600;10.040;2022-07-29T11:52:17;101785.47;;;27.93
74043;BMP280;62384;53.600;10.040;2022-07-29T11:54:43;101757.38;;;27.55
74043;BMP280;62384;53.600;10.040;2022-07-29T11:57:10;101778.22;;;27.25
74043;BMP280;62384;53.600;10.040;2022-07-29T11:59:43;101783.91;;;27.09
74043;BMP280;62384;53.600;10.040;2022-07-29T12:02:09;101777.66;;;27.09
74043;BMP280;62384;53.600;10.040;2022-07-29T12:04:55;101776.06;;;27.29
74043;BMP280;62384;53.600;10.040;2022-07-29T12:07:31;101770.06;;;27.83
74043;BMP280;62384;53.600;10.040;2022-07-29T12:09:57;101730.09;;;27.57
74043;BMP280;62384;53.600;10.040;2022-07-29T12:12:23;101768.75;;;28.14
74043;BMP280;62384;53.600;10.040;2022-07-29T12:14:49;101748.13;;;28.37
74043;BMP280;62384;53.600;10.040;2022-07-29T12:17:33;101751.38;;;29.64
